Terminal Aerodrome Forecast
Issued by NWS Sterling, VA

Current Version | Previous Version | Text Only | Print | Product List | Glossary Off
Versions: 1 2 3 4 5 6 7 8 9 10 11 12 13 14 15 16 17 18 19 20 21 22 23 24 25 26 27

000
FTUS41 KLWX 251400 AAB
TAFDCA
TAF AMD
KDCA 251454Z 2515/2612 25006KT P6SM OVC050
     FM252100 VRB05KT P6SM OVC035
     FM260400 05007KT 4SM -RA OVC030
     FM260900 06010KT 2SM -SN BKN007 OVC015
     FM261100 06009KT 1/2SM SN OVC004=

USA.gov is the U.S. government's official web portal to all federal, state and local government web resources and services.